sensor_id;sensor_type;location;lat;lon;timestamp;P1;durP1;ratioP1;P2;durP2;ratioP2
34204;SDS011;20471;49.680;20.074;2022-08-21T00:01:47;23.90;;;16.90;;
34204;SDS011;20471;49.680;20.074;2022-08-21T00:04:14;24.43;;;15.98;;
34204;SDS011;20471;49.680;20.074;2022-08-21T00:06:41;28.25;;;16.65;;
34204;SDS011;20471;49.680;20.074;2022-08-21T00:09:08;31.23;;;17.65;;
34204;SDS011;20471;49.680;20.074;2022-08-21T00:11:36;27.25;;;17.17;;
34204;SDS011;20471;49.680;20.074;2022-08-21T00:14:06;31.50;;;18.60;;
34204;SDS011;20471;49.680;20.074;2022-08-21T00:16:34;30.60;;;18.00;;
34204;SDS011;20471;49.680;20.074;2022-08-21T00:19:01;28.60;;;17.37;;
34204;SDS011;20471;49.680;20.074;2022-08-21T00:21:29;30.23;;;18.98;;
34204;SDS011;20471;49.680;20.074;2022-08-21T00:23:55;31.93;;;19.40;;
34204;SDS011;20471;49.680;20.074;2022-08-21T00:26:22;26.52;;;18.12;;
34204;SDS011;20471;49.680;20.074;2022-08-21T00:28:48;33.53;;;18.20;;
34204;SDS011;20471;49.680;20.074;2022-08-21T00:31:15;25.45;;;17.75;;
34204;SDS011;20471;49.680;20.074;2022-08-21T00:33:43;27.58;;;17.45;;
34204;SDS011;20471;49.680;20.074;2022-08-21T00:36:11;32.10;;;18.55;;
34204;SDS011;20471;49.680;20.074;2022-08-21T00:38:39;28.52;;;18.05;;
34204;SDS011;20471;49.680;20.074;2022-08-21T00:41:06;27.60;;;17.27;;
34204;SDS011;20471;49.680;20.074;2022-08-21T00:43:36;26.42;;;17.98;;
34204;SDS011;20471;49.680;20.074;2022-08-21T00:46:05;30.80;;;17.37;;
34204;SDS011;20471;49.680;20.074;2022-08-21T00:48:33;25.95;;;17.15;;
34204;SDS011;20471;49.680;20.074;2022-08-21T00:51:17;22.90;;;16.35;;
34204;SDS011;20471;49.680;20.074;2022-08-21T00:53:56;25.32;;;15.85;;
34204;SDS011;20471;49.680;20.074;2022-08-21T00:56:25;27.73;;;17.30;;
34204;SDS011;20471;49.680;20.074;2022-08-21T00:58:52;25.25;;;17.92;;
34204;SDS011;20471;49.680;20.074;2022-08-21T01:01:19;24.37;;;16.50;;
34204;SDS011;20471;49.680;20.074;2022-08-21T01:03:47;27.42;;;17.57;;
34204;SDS011;20471;49.680;20.074;2022-08-21T01:06:14;26.30;;;17.48;;
34204;SDS011;20471;49.680;20.074;2022-08-21T01:08:41;28.32;;;16.97;;
34204;SDS011;20471;49.680;20.074;2022-08-21T01:11:08;24.63;;;16.75;;
34204;SDS011;20471;49.680;20.074;2022-08-21T01:13:35;25.92;;;16.60;;
34204;SDS011;20471;49.680;20.074;2022-08-21T01:16:05;26.48;;;17.15;;
34204;SDS011;20471;49.680;20.074;2022-08-21T01:18:35;26.50;;;16.97;;
34204;SDS011;20471;49.680;20.074;2022-08-21T01:21:09;28.20;;;16.80;;
34204;SDS011;20471;49.680;20.074;2022-08-21T01:23:40;22.95;;;16.32;;
34204;SDS011;20471;49.680;20.074;2022-08-21T01:26:10;22.17;;;16.15;;
34204;SDS011;20471;49.680;20.074;2022-08-21T01:28:44;28.47;;;15.78;;
34204;SDS011;20471;49.680;20.074;2022-08-21T01:31:14;23.50;;;15.88;;
34204;SDS011;20471;49.680;20.074;2022-08-21T01:33:43;29.50;;;15.83;;
34204;SDS011;20471;49.680;20.074;2022-08-21T01:36:10;25.00;;;17.10;;
34204;SDS011;20471;49.680;20.074;2022-08-21T01:38:37;21.93;;;15.72;;
34204;SDS011;20471;49.680;20.074;2022-08-21T01:41:03;25.45;;;16.05;;
34204;SDS011;20471;49.680;20.074;2022-08-21T01:43:30;19.27;;;15.70;;
34204;SDS011;20471;49.680;20.074;2022-08-21T01:45:57;22.10;;;15.13;;
34204;SDS011;20471;49.680;20.074;2022-08-21T01:48:23;19.57;;;14.28;;
34204;SDS011;20471;49.680;20.074;2022-08-21T01:50:50;23.83;;;15.55;;
34204;SDS011;20471;49.680;20.074;2022-08-21T01:53:17;22.82;;;15.32;;
34204;SDS011;20471;49.680;20.074;2022-08-21T01:55:43;24.87;;;15.60;;
34204;SDS011;20471;49.680;20.074;2022-08-21T01:58:10;25.27;;;15.20;;
34204;SDS011;20471;49.680;20.074;2022-08-21T02:00:37;26.68;;;15.13;;
34204;SDS011;20471;49.680;20.074;2022-08-21T02:03:03;23.35;;;15.00;;
34204;SDS011;20471;49.680;20.074;2022-08-21T02:05:31;21.62;;;14.47;;
34204;SDS011;20471;49.680;20.074;2022-08-21T02:07:57;19.40;;;13.90;;
34204;SDS011;20471;49.680;20.074;2022-08-21T02:10:26;17.32;;;14.25;;
34204;SDS011;20471;49.680;20.074;2022-08-21T02:12:56;22.00;;;14.50;;
34204;SDS011;20471;49.680;20.074;2022-08-21T02:15:25;17.55;;;13.80;;
34204;SDS011;20471;49.680;20.074;2022-08-21T02:17:54;19.02;;;14.20;;
34204;SDS011;20471;49.680;20.074;2022-08-21T02:23:02;18.77;;;13.72;;
34204;SDS011;20471;49.680;20.074;2022-08-21T02:25:30;17.48;;;12.37;;
34204;SDS011;20471;49.680;20.074;2022-08-21T02:27:58;18.05;;;12.37;;
34204;SDS011;20471;49.680;20.074;2022-08-21T02:30:29;17.35;;;13.62;;
34204;SDS011;20471;49.680;20.074;2022-08-21T02:32:58;18.55;;;12.58;;
34204;SDS011;20471;49.680;20.074;2022-08-21T02:35:26;17.48;;;12.25;;
34204;SDS011;20471;49.680;20.074;2022-08-21T02:37:57;17.75;;;11.95;;
34204;SDS011;20471;49.680;20.074;2022-08-21T02:40:29;19.40;;;12.53;;
34204;SDS011;20471;49.680;20.074;2022-08-21T02:42:59;17.10;;;12.58;;
34204;SDS011;20471;49.680;20.074;2022-08-21T02:45:28;18.48;;;12.35;;
34204;SDS011;20471;49.680;20.074;2022-08-21T02:50:27;16.60;;;11.75;;
34204;SDS011;20471;49.680;20.074;2022-08-21T02:52:57;16.40;;;11.63;;
34204;SDS011;20471;49.680;20.074;2022-08-21T02:55:28;16.10;;;11.43;;
34204;SDS011;20471;49.680;20.074;2022-08-21T02:57:55;17.98;;;13.10;;
34204;SDS011;20471;49.680;20.074;2022-08-21T03:00:24;22.93;;;12.93;;
34204;SDS011;20471;49.680;20.074;2022-08-21T03:02:53;15.15;;;11.85;;
34204;SDS011;20471;49.680;20.074;2022-08-21T03:05:22;20.08;;;12.55;;
34204;SDS011;20471;49.680;20.074;2022-08-21T03:07:50;15.90;;;11.90;;
34204;SDS011;20471;49.680;20.074;2022-08-21T03:10:18;18.32;;;10.95;;
34204;SDS011;20471;49.680;20.074;2022-08-21T03:12:47;16.25;;;11.30;;
34204;SDS011;20471;49.680;20.074;2022-08-21T03:15:16;13.90;;;11.08;;
34204;SDS011;20471;49.680;20.074;2022-08-21T03:17:44;18.77;;;11.83;;
34204;SDS011;20471;49.680;20.074;2022-08-21T03:20:14;15.40;;;11.55;;
34204;SDS011;20471;49.680;20.074;2022-08-21T03:22:43;21.30;;;12.85;;
34204;SDS011;20471;49.680;20.074;2022-08-21T03:25:10;12.03;;;10.40;;
34204;SDS011;20471;49.680;20.074;2022-08-21T03:27:37;14.35;;;10.40;;
34204;SDS011;20471;49.680;20.074;2022-08-21T03:30:05;13.90;;;10.70;;
34204;SDS011;20471;49.680;20.074;2022-08-21T03:32:33;15.25;;;10.50;;
34204;SDS011;20471;49.680;20.074;2022-08-21T03:35:00;17.42;;;10.80;;
34204;SDS011;20471;49.680;20.074;2022-08-21T03:37:28;16.27;;;11.38;;
34204;SDS011;20471;49.680;20.074;2022-08-21T03:39:54;20.30;;;11.97;;
34204;SDS011;20471;49.680;20.074;2022-08-21T03:42:21;16.20;;;11.97;;
34204;SDS011;20471;49.680;20.074;2022-08-21T03:44:48;19.65;;;13.55;;
34204;SDS011;20471;49.680;20.074;2022-08-21T03:47:15;16.95;;;12.68;;
34204;SDS011;20471;49.680;20.074;2022-08-21T03:49:42;19.82;;;12.98;;
34204;SDS011;20471;49.680;20.074;2022-08-21T03:52:08;19.55;;;13.48;;
34204;SDS011;20471;49.680;20.074;2022-08-21T03:54:35;17.45;;;12.20;;
34204;SDS011;20471;49.680;20.074;2022-08-21T03:57:02;20.12;;;13.20;;
34204;SDS011;20471;49.680;20.074;2022-08-21T03:59:29;20.55;;;13.60;;
34204;SDS011;20471;49.680;20.074;2022-08-21T04:04:27;22.73;;;15.32;;
34204;SDS011;20471;49.680;20.074;2022-08-21T04:06:55;18.25;;;12.47;;
34204;SDS011;20471;49.680;20.074;2022-08-21T04:09:23;21.02;;;12.37;;
34204;SDS011;20471;49.680;20.074;2022-08-21T04:11:50;23.87;;;12.55;;
34204;SDS011;20471;49.680;20.074;2022-08-21T04:14:18;17.25;;;12.73;;
34204;SDS011;20471;49.680;20.074;2022-08-21T04:16:45;19.10;;;13.80;;
34204;SDS011;20471;49.680;20.074;2022-08-21T04:19:12;22.58;;;16.45;;
34204;SDS011;20471;49.680;20.074;2022-08-21T04:21:39;26.62;;;15.53;;
34204;SDS011;20471;49.680;20.074;2022-08-21T04:24:07;19.90;;;14.00;;
34204;SDS011;20471;49.680;20.074;2022-08-21T04:26:36;22.50;;;15.05;;
34204;SDS011;20471;49.680;20.074;2022-08-21T04:29:04;23.38;;;14.43;;
34204;SDS011;20471;49.680;20.074;2022-08-21T04:31:34;28.60;;;16.57;;
34204;SDS011;20471;49.680;20.074;2022-08-21T04:34:03;25.57;;;16.57;;
34204;SDS011;20471;49.680;20.074;2022-08-21T04:36:31;25.75;;;17.20;;
34204;SDS011;20471;49.680;20.074;2022-08-21T04:38:58;31.10;;;17.70;;
34204;SDS011;20471;49.680;20.074;2022-08-21T04:41:25;26.33;;;17.15;;
34204;SDS011;20471;49.680;20.074;2022-08-21T04:43:52;27.22;;;17.77;;
34204;SDS011;20471;49.680;20.074;2022-08-21T04:46:20;24.30;;;16.85;;
34204;SDS011;20471;49.680;20.074;2022-08-21T04:48:48;27.40;;;17.40;;
34204;SDS011;20471;49.680;20.074;2022-08-21T04:53:48;26.52;;;17.32;;
34204;SDS011;20471;49.680;20.074;2022-08-21T04:56:23;28.35;;;15.58;;
34204;SDS011;20471;49.680;20.074;2022-08-21T04:59:04;26.45;;;16.75;;
34204;SDS011;20471;49.680;20.074;2022-08-21T05:01:36;23.15;;;16.85;;
34204;SDS011;20471;49.680;20.074;2022-08-21T05:04:04;29.00;;;17.45;;
34204;SDS011;20471;49.680;20.074;2022-08-21T05:06:34;25.43;;;17.65;;
34204;SDS011;20471;49.680;20.074;2022-08-21T05:09:04;26.68;;;17.52;;
34204;SDS011;20471;49.680;20.074;2022-08-21T05:11:31;25.85;;;16.95;;
34204;SDS011;20471;49.680;20.074;2022-08-21T05:13:59;21.27;;;16.75;;
34204;SDS011;20471;49.680;20.074;2022-08-21T05:16:25;24.10;;;17.80;;
34204;SDS011;20471;49.680;20.074;2022-08-21T05:18:53;26.12;;;18.12;;
34204;SDS011;20471;49.680;20.074;2022-08-21T05:21:19;26.95;;;16.95;;
34204;SDS011;20471;49.680;20.074;2022-08-21T05:23:46;23.18;;;17.23;;
34204;SDS011;20471;49.680;20.074;2022-08-21T05:26:13;24.45;;;16.42;;
34204;SDS011;20471;49.680;20.074;2022-08-21T05:28:39;22.93;;;16.30;;
34204;SDS011;20471;49.680;20.074;2022-08-21T05:31:06;23.73;;;16.25;;
34204;SDS011;20471;49.680;20.074;2022-08-21T05:33:32;21.68;;;16.12;;
34204;SDS011;20471;49.680;20.074;2022-08-21T05:35:59;22.93;;;16.87;;
34204;SDS011;20471;49.680;20.074;2022-08-21T05:38:26;20.60;;;16.62;;
34204;SDS011;20471;49.680;20.074;2022-08-21T05:40:54;21.90;;;16.25;;
34204;SDS011;20471;49.680;20.074;2022-08-21T05:43:21;21.55;;;17.12;;
34204;SDS011;20471;49.680;20.074;2022-08-21T05:45:47;21.52;;;16.30;;
34204;SDS011;20471;49.680;20.074;2022-08-21T05:48:16;23.57;;;17.55;;
34204;SDS011;20471;49.680;20.074;2022-08-21T05:50:46;23.57;;;17.30;;
34204;SDS011;20471;49.680;20.074;2022-08-21T05:53:14;22.98;;;17.67;;
34204;SDS011;20471;49.680;20.074;2022-08-21T05:55:43;23.92;;;17.62;;
34204;SDS011;20471;49.680;20.074;2022-08-21T05:58:11;23.35;;;18.15;;
34204;SDS011;20471;49.680;20.074;2022-08-21T06:00:43;24.55;;;17.60;;
34204;SDS011;20471;49.680;20.074;2022-08-21T06:03:19;25.08;;;18.25;;
34204;SDS011;20471;49.680;20.074;2022-08-21T06:05:49;26.73;;;18.25;;
34204;SDS011;20471;49.680;20.074;2022-08-21T06:08:17;21.60;;;18.62;;
34204;SDS011;20471;49.680;20.074;2022-08-21T06:10:45;23.50;;;18.07;;
34204;SDS011;20471;49.680;20.074;2022-08-21T06:13:13;22.15;;;18.32;;
34204;SDS011;20471;49.680;20.074;2022-08-21T06:15:42;23.47;;;17.82;;
34204;SDS011;20471;49.680;20.074;2022-08-21T06:18:09;23.47;;;17.73;;
34204;SDS011;20471;49.680;20.074;2022-08-21T06:20:36;22.15;;;16.87;;
34204;SDS011;20471;49.680;20.074;2022-08-21T06:23:04;24.43;;;19.90;;
34204;SDS011;20471;49.680;20.074;2022-08-21T06:25:31;26.40;;;18.52;;
34204;SDS011;20471;49.680;20.074;2022-08-21T06:28:03;22.30;;;17.62;;
34204;SDS011;20471;49.680;20.074;2022-08-21T06:30:33;20.97;;;16.62;;
34204;SDS011;20471;49.680;20.074;2022-08-21T06:33:02;20.30;;;15.80;;
34204;SDS011;20471;49.680;20.074;2022-08-21T06:35:29;19.17;;;15.50;;
34204;SDS011;20471;49.680;20.074;2022-08-21T06:37:56;18.02;;;16.00;;
34204;SDS011;20471;49.680;20.074;2022-08-21T06:40:24;18.82;;;15.23;;
34204;SDS011;20471;49.680;20.074;2022-08-21T06:42:52;18.65;;;13.95;;
34204;SDS011;20471;49.680;20.074;2022-08-21T06:45:20;17.92;;;13.95;;
34204;SDS011;20471;49.680;20.074;2022-08-21T06:47:48;20.48;;;14.53;;
34204;SDS011;20471;49.680;20.074;2022-08-21T06:50:14;23.22;;;15.63;;
34204;SDS011;20471;49.680;20.074;2022-08-21T06:52:41;17.20;;;14.70;;
34204;SDS011;20471;49.680;20.074;2022-08-21T06:55:08;19.37;;;15.35;;
34204;SDS011;20471;49.680;20.074;2022-08-21T06:57:37;18.50;;;14.10;;
34204;SDS011;20471;49.680;20.074;2022-08-21T07:00:04;16.93;;;13.95;;
34204;SDS011;20471;49.680;20.074;2022-08-21T07:02:33;20.57;;;15.13;;
34204;SDS011;20471;49.680;20.074;2022-08-21T07:05:00;21.73;;;15.63;;
34204;SDS011;20471;49.680;20.074;2022-08-21T07:07:27;20.23;;;14.93;;
34204;SDS011;20471;49.680;20.074;2022-08-21T07:09:53;20.82;;;13.78;;
34204;SDS011;20471;49.680;20.074;2022-08-21T07:12:20;20.52;;;14.35;;
34204;SDS011;20471;49.680;20.074;2022-08-21T07:14:47;18.62;;;14.93;;
34204;SDS011;20471;49.680;20.074;2022-08-21T07:17:14;16.95;;;14.43;;
34204;SDS011;20471;49.680;20.074;2022-08-21T07:19:40;17.70;;;14.60;;
34204;SDS011;20471;49.680;20.074;2022-08-21T07:22:07;17.77;;;14.23;;
34204;SDS011;20471;49.680;20.074;2022-08-21T07:24:34;17.92;;;14.73;;
34204;SDS011;20471;49.680;20.074;2022-08-21T07:27:01;19.07;;;15.43;;
34204;SDS011;20471;49.680;20.074;2022-08-21T07:29:27;20.32;;;15.63;;
34204;SDS011;20471;49.680;20.074;2022-08-21T07:31:54;20.65;;;14.93;;
34204;SDS011;20471;49.680;20.074;2022-08-21T07:34:21;20.10;;;15.45;;
34204;SDS011;20471;49.680;20.074;2022-08-21T07:36:47;26.10;;;17.92;;
34204;SDS011;20471;49.680;20.074;2022-08-21T07:39:14;26.07;;;17.73;;
34204;SDS011;20471;49.680;20.074;2022-08-21T07:41:41;28.87;;;19.30;;
34204;SDS011;20471;49.680;20.074;2022-08-21T07:44:07;29.63;;;19.55;;
34204;SDS011;20471;49.680;20.074;2022-08-21T07:46:34;29.05;;;19.73;;
34204;SDS011;20471;49.680;20.074;2022-08-21T07:49:00;32.42;;;22.13;;
34204;SDS011;20471;49.680;20.074;2022-08-21T07:51:28;35.20;;;22.32;;
34204;SDS011;20471;49.680;20.074;2022-08-21T07:53:56;34.90;;;23.52;;
34204;SDS011;20471;49.680;20.074;2022-08-21T07:56:25;34.05;;;23.77;;
34204;SDS011;20471;49.680;20.074;2022-08-21T07:58:53;38.40;;;24.80;;
34204;SDS011;20471;49.680;20.074;2022-08-21T08:01:21;38.20;;;24.60;;
34204;SDS011;20471;49.680;20.074;2022-08-21T08:03:48;40.92;;;25.72;;
34204;SDS011;20471;49.680;20.074;2022-08-21T08:06:15;38.75;;;25.05;;
34204;SDS011;20471;49.680;20.074;2022-08-21T08:08:44;40.12;;;24.37;;
34204;SDS011;20471;49.680;20.074;2022-08-21T08:11:12;39.98;;;24.90;;
34204;SDS011;20471;49.680;20.074;2022-08-21T08:13:43;37.73;;;25.15;;
34204;SDS011;20471;49.680;20.074;2022-08-21T08:16:13;38.80;;;25.17;;
34204;SDS011;20471;49.680;20.074;2022-08-21T08:18:40;40.23;;;25.43;;
34204;SDS011;20471;49.680;20.074;2022-08-21T08:21:07;37.75;;;25.00;;
34204;SDS011;20471;49.680;20.074;2022-08-21T08:23:35;35.60;;;24.05;;
34204;SDS011;20471;49.680;20.074;2022-08-21T08:26:03;39.38;;;24.47;;
34204;SDS011;20471;49.680;20.074;2022-08-21T08:28:30;39.83;;;24.63;;
34204;SDS011;20471;49.680;20.074;2022-08-21T08:30:58;37.30;;;25.68;;
34204;SDS011;20471;49.680;20.074;2022-08-21T08:33:26;38.20;;;24.25;;
34204;SDS011;20471;49.680;20.074;2022-08-21T08:35:53;38.42;;;24.35;;
34204;SDS011;20471;49.680;20.074;2022-08-21T08:38:21;37.53;;;25.65;;
34204;SDS011;20471;49.680;20.074;2022-08-21T08:43:38;37.53;;;25.15;;
34204;SDS011;20471;49.680;20.074;2022-08-21T08:46:14;37.98;;;24.40;;
34204;SDS011;20471;49.680;20.074;2022-08-21T08:48:51;39.05;;;25.57;;
34204;SDS011;20471;49.680;20.074;2022-08-21T08:51:24;38.45;;;23.80;;
34204;SDS011;20471;49.680;20.074;2022-08-21T08:54:04;38.85;;;24.43;;
34204;SDS011;20471;49.680;20.074;2022-08-21T08:56:35;43.07;;;26.57;;
34204;SDS011;20471;49.680;20.074;2022-08-21T09:01:36;41.42;;;26.82;;
34204;SDS011;20471;49.680;20.074;2022-08-21T09:04:04;37.85;;;25.75;;
34204;SDS011;20471;49.680;20.074;2022-08-21T09:06:34;41.30;;;26.62;;
34204;SDS011;20471;49.680;20.074;2022-08-21T09:09:23;41.92;;;26.82;;
34204;SDS011;20471;49.680;20.074;2022-08-21T09:14:27;38.48;;;26.75;;
34204;SDS011;20471;49.680;20.074;2022-08-21T09:28:34;38.23;;;26.15;;
34204;SDS011;20471;49.680;20.074;2022-08-21T09:31:04;47.70;;;30.02;;
34204;SDS011;20471;49.680;20.074;2022-08-21T09:33:36;48.02;;;29.98;;
34204;SDS011;20471;49.680;20.074;2022-08-21T09:36:03;48.20;;;30.00;;
34204;SDS011;20471;49.680;20.074;2022-08-21T09:38:31;49.00;;;29.80;;
34204;SDS011;20471;49.680;20.074;2022-08-21T09:41:03;47.70;;;29.82;;
34204;SDS011;20471;49.680;20.074;2022-08-21T09:43:34;44.20;;;28.60;;
34204;SDS011;20471;49.680;20.074;2022-08-21T09:46:06;44.83;;;30.70;;
34204;SDS011;20471;49.680;20.074;2022-08-21T09:48:44;90.83;;;65.22;;
34204;SDS011;20471;49.680;20.074;2022-08-21T09:51:12;51.37;;;34.38;;
34204;SDS011;20471;49.680;20.074;2022-08-21T09:53:44;54.15;;;35.13;;
34204;SDS011;20471;49.680;20.074;2022-08-21T09:59:27;53.73;;;33.73;;
34204;SDS011;20471;49.680;20.074;2022-08-21T10:01:58;59.58;;;34.55;;
34204;SDS011;20471;49.680;20.074;2022-08-21T10:04:32;51.85;;;33.48;;
34204;SDS011;20471;49.680;20.074;2022-08-21T10:09:36;52.50;;;33.98;;
34204;SDS011;20471;49.680;20.074;2022-08-21T10:14:54;59.67;;;35.55;;
34204;SDS011;20471;49.680;20.074;2022-08-21T10:17:41;50.03;;;32.83;;
34204;SDS011;20471;49.680;20.074;2022-08-21T10:23:03;52.58;;;34.65;;
34204;SDS011;20471;49.680;20.074;2022-08-21T10:25:58;54.10;;;34.65;;
34204;SDS011;20471;49.680;20.074;2022-08-21T10:34:20;59.63;;;33.80;;
34204;SDS011;20471;49.680;20.074;2022-08-21T10:37:06;56.13;;;33.90;;
34204;SDS011;20471;49.680;20.074;2022-08-21T10:42:33;55.03;;;34.25;;
34204;SDS011;20471;49.680;20.074;2022-08-21T10:48:02;51.40;;;33.45;;
34204;SDS011;20471;49.680;20.074;2022-08-21T10:50:31;51.75;;;33.25;;
34204;SDS011;20471;49.680;20.074;2022-08-21T10:58:29;54.75;;;33.13;;
34204;SDS011;20471;49.680;20.074;2022-08-21T11:06:37;61.23;;;36.17;;
34204;SDS011;20471;49.680;20.074;2022-08-21T11:09:14;58.10;;;37.90;;
34204;SDS011;20471;49.680;20.074;2022-08-21T11:11:47;58.70;;;37.00;;
34204;SDS011;20471;49.680;20.074;2022-08-21T11:14:43;56.33;;;37.88;;
34204;SDS011;20471;49.680;20.074;2022-08-21T11:20:35;61.13;;;39.38;;
34204;SDS011;20471;49.680;20.074;2022-08-21T11:23:14;57.58;;;38.55;;
34204;SDS011;20471;49.680;20.074;2022-08-21T11:25:51;57.90;;;38.15;;
34204;SDS011;20471;49.680;20.074;2022-08-21T11:34:10;45.40;;;26.95;;
34204;SDS011;20471;49.680;20.074;2022-08-21T11:39:38;34.35;;;24.52;;
34204;SDS011;20471;49.680;20.074;2022-08-21T11:51:21;34.33;;;19.55;;
34204;SDS011;20471;49.680;20.074;2022-08-21T11:56:31;18.17;;;11.95;;
34204;SDS011;20471;49.680;20.074;2022-08-21T11:59:05;13.40;;;9.90;;
34204;SDS011;20471;49.680;20.074;2022-08-21T12:01:40;14.55;;;9.40;;
34204;SDS011;20471;49.680;20.074;2022-08-21T12:04:17;14.40;;;9.98;;
34204;SDS011;20471;49.680;20.074;2022-08-21T12:07:09;11.73;;;9.13;;
34204;SDS011;20471;49.680;20.074;2022-08-21T12:09:53;11.40;;;8.58;;
34204;SDS011;20471;49.680;20.074;2022-08-21T12:20:34;8.55;;;6.87;;
34204;SDS011;20471;49.680;20.074;2022-08-21T12:25:41;9.63;;;6.85;;
34204;SDS011;20471;49.680;20.074;2022-08-21T12:28:27;12.25;;;6.58;;
34204;SDS011;20471;49.680;20.074;2022-08-21T12:30:55;12.40;;;6.28;;
34204;SDS011;20471;49.680;20.074;2022-08-21T12:36:06;9.53;;;5.75;;
34204;SDS011;20471;49.680;20.074;2022-08-21T12:38:47;10.58;;;5.25;;
34204;SDS011;20471;49.680;20.074;2022-08-21T12:41:25;7.92;;;5.00;;
34204;SDS011;20471;49.680;20.074;2022-08-21T12:43:59;5.72;;;4.70;;
34204;SDS011;20471;49.680;20.074;2022-08-21T12:49:14;5.87;;;4.15;;
34204;SDS011;20471;49.680;20.074;2022-08-21T12:52:11;8.43;;;4.60;;
34204;SDS011;20471;49.680;20.074;2022-08-21T12:54:46;6.97;;;4.42;;
34204;SDS011;20471;49.680;20.074;2022-08-21T12:57:17;4.50;;;3.98;;
34204;SDS011;20471;49.680;20.074;2022-08-21T13:02:25;4.90;;;3.75;;
34204;SDS011;20471;49.680;20.074;2022-08-21T13:04:58;4.12;;;3.52;;
34204;SDS011;20471;49.680;20.074;2022-08-21T13:07:32;4.72;;;3.70;;
34204;SDS011;20471;49.680;20.074;2022-08-21T13:12:49;5.62;;;3.90;;
34204;SDS011;20471;49.680;20.074;2022-08-21T13:15:22;4.40;;;3.80;;
34204;SDS011;20471;49.680;20.074;2022-08-21T13:17:51;4.83;;;3.75;;
34204;SDS011;20471;49.680;20.074;2022-08-21T13:22:51;4.03;;;3.35;;
34204;SDS011;20471;49.680;20.074;2022-08-21T13:25:20;4.80;;;3.85;;
34204;SDS011;20471;49.680;20.074;2022-08-21T13:30:28;5.40;;;3.50;;
34204;SDS011;20471;49.680;20.074;2022-08-21T13:35:28;7.60;;;4.03;;
34204;SDS011;20471;49.680;20.074;2022-08-21T13:38:04;5.35;;;3.80;;
34204;SDS011;20471;49.680;20.074;2022-08-21T13:40:32;6.25;;;3.70;;
34204;SDS011;20471;49.680;20.074;2022-08-21T13:43:13;4.87;;;3.60;;
34204;SDS011;20471;49.680;20.074;2022-08-21T13:45:44;4.60;;;3.47;;
34204;SDS011;20471;49.680;20.074;2022-08-21T13:48:17;4.55;;;3.65;;
34204;SDS011;20471;49.680;20.074;2022-08-21T13:50:45;5.95;;;3.87;;
34204;SDS011;20471;49.680;20.074;2022-08-21T13:55:53;4.95;;;3.90;;
34204;SDS011;20471;49.680;20.074;2022-08-21T13:58:26;5.87;;;3.58;;
34204;SDS011;20471;49.680;20.074;2022-08-21T14:00:57;5.22;;;4.00;;
34204;SDS011;20471;49.680;20.074;2022-08-21T14:06:11;4.60;;;4.15;;
34204;SDS011;20471;49.680;20.074;2022-08-21T14:08:55;6.03;;;4.28;;
34204;SDS011;20471;49.680;20.074;2022-08-21T14:11:32;5.70;;;4.58;;
34204;SDS011;20471;49.680;20.074;2022-08-21T14:14:00;5.20;;;4.37;;
34204;SDS011;20471;49.680;20.074;2022-08-21T14:21:49;7.95;;;4.95;;
34204;SDS011;20471;49.680;20.074;2022-08-21T14:26:57;5.37;;;4.53;;
34204;SDS011;20471;49.680;20.074;2022-08-21T14:29:33;5.75;;;4.37;;
34204;SDS011;20471;49.680;20.074;2022-08-21T14:32:13;7.90;;;5.00;;
34204;SDS011;20471;49.680;20.074;2022-08-21T14:34:40;7.87;;;5.33;;
34204;SDS011;20471;49.680;20.074;2022-08-21T14:37:07;5.28;;;4.67;;
34204;SDS011;20471;49.680;20.074;2022-08-21T14:39:34;5.75;;;5.10;;
34204;SDS011;20471;49.680;20.074;2022-08-21T14:42:00;6.35;;;4.90;;
34204;SDS011;20471;49.680;20.074;2022-08-21T14:44:28;8.03;;;4.72;;
34204;SDS011;20471;49.680;20.074;2022-08-21T14:46:54;5.78;;;5.05;;
34204;SDS011;20471;49.680;20.074;2022-08-21T14:49:23;5.53;;;5.03;;
34204;SDS011;20471;49.680;20.074;2022-08-21T14:51:52;7.12;;;5.08;;
34204;SDS011;20471;49.680;20.074;2022-08-21T14:54:23;6.87;;;5.35;;
34204;SDS011;20471;49.680;20.074;2022-08-21T14:56:51;6.60;;;5.50;;
34204;SDS011;20471;49.680;20.074;2022-08-21T14:59:19;7.83;;;5.70;;
34204;SDS011;20471;49.680;20.074;2022-08-21T15:01:47;7.20;;;5.12;;
34204;SDS011;20471;49.680;20.074;2022-08-21T15:04:14;7.40;;;6.60;;
34204;SDS011;20471;49.680;20.074;2022-08-21T15:06:41;6.75;;;5.60;;
34204;SDS011;20471;49.680;20.074;2022-08-21T15:09:08;7.25;;;5.58;;
34204;SDS011;20471;49.680;20.074;2022-08-21T15:11:34;6.35;;;5.67;;
34204;SDS011;20471;49.680;20.074;2022-08-21T15:14:02;6.33;;;5.72;;
34204;SDS011;20471;49.680;20.074;2022-08-21T15:16:32;8.13;;;6.50;;
34204;SDS011;20471;49.680;20.074;2022-08-21T15:19:00;7.97;;;6.17;;
34204;SDS011;20471;49.680;20.074;2022-08-21T15:21:26;7.67;;;6.65;;
34204;SDS011;20471;49.680;20.074;2022-08-21T15:23:53;7.50;;;6.42;;
34204;SDS011;20471;49.680;20.074;2022-08-21T15:26:20;5.97;;;5.42;;
34204;SDS011;20471;49.680;20.074;2022-08-21T15:28:48;6.12;;;5.40;;
34204;SDS011;20471;49.680;20.074;2022-08-21T15:31:15;6.78;;;6.00;;
34204;SDS011;20471;49.680;20.074;2022-08-21T15:33:42;6.95;;;5.97;;
34204;SDS011;20471;49.680;20.074;2022-08-21T15:36:08;7.35;;;6.30;;
34204;SDS011;20471;49.680;20.074;2022-08-21T15:38:35;7.12;;;6.53;;
34204;SDS011;20471;49.680;20.074;2022-08-21T15:41:02;7.40;;;6.78;;
34204;SDS011;20471;49.680;20.074;2022-08-21T15:43:33;7.75;;;7.00;;
34204;SDS011;20471;49.680;20.074;2022-08-21T15:46:02;8.90;;;6.53;;
34204;SDS011;20471;49.680;20.074;2022-08-21T15:48:31;7.70;;;6.85;;
34204;SDS011;20471;49.680;20.074;2022-08-21T15:50:57;8.65;;;7.80;;
34204;SDS011;20471;49.680;20.074;2022-08-21T15:53:24;9.10;;;7.62;;
34204;SDS011;20471;49.680;20.074;2022-08-21T15:55:50;9.18;;;7.22;;
34204;SDS011;20471;49.680;20.074;2022-08-21T15:58:17;9.65;;;8.10;;
34204;SDS011;20471;49.680;20.074;2022-08-21T16:00:46;8.88;;;7.97;;
34204;SDS011;20471;49.680;20.074;2022-08-21T16:03:14;10.93;;;8.65;;
34204;SDS011;20471;49.680;20.074;2022-08-21T16:05:44;9.15;;;8.35;;
34204;SDS011;20471;49.680;20.074;2022-08-21T16:08:13;9.38;;;8.55;;
34204;SDS011;20471;49.680;20.074;2022-08-21T16:10:40;10.75;;;9.65;;
34204;SDS011;20471;49.680;20.074;2022-08-21T16:13:10;9.43;;;8.53;;
34204;SDS011;20471;49.680;20.074;2022-08-21T16:15:44;10.05;;;9.13;;
34204;SDS011;20471;49.680;20.074;2022-08-21T16:18:11;10.35;;;8.78;;
34204;SDS011;20471;49.680;20.074;2022-08-21T16:20:38;10.50;;;8.58;;
34204;SDS011;20471;49.680;20.074;2022-08-21T16:23:05;10.10;;;8.70;;
34204;SDS011;20471;49.680;20.074;2022-08-21T16:25:34;9.40;;;8.40;;
34204;SDS011;20471;49.680;20.074;2022-08-21T16:28:04;9.43;;;8.53;;
34204;SDS011;20471;49.680;20.074;2022-08-21T16:30:33;9.05;;;8.15;;
34204;SDS011;20471;49.680;20.074;2022-08-21T16:33:00;9.18;;;8.28;;
34204;SDS011;20471;49.680;20.074;2022-08-21T16:35:29;8.13;;;7.40;;
34204;SDS011;20471;49.680;20.074;2022-08-21T16:37:56;9.20;;;8.00;;
34204;SDS011;20471;49.680;20.074;2022-08-21T16:40:22;8.93;;;7.60;;